Time;durP1;ratioP1;P1;durP2;ratioP2;P2;SDS_P1;SDS_P2;PMS_P1;PMS_P2;Temp;Humidity;BMP_temperature;BMP_pressure;BME280_temperature;BME280_humidity;BME280_pressure;Samples;Min_cycle;Max_cycle;Signal;HPM_P1;HPM_P2
2022/01/30 00:00:31;;;;;;;8.03;6.45;;;;;;;4.75;91.04;98479.33;3288709;85;21014;-80
2022/01/30 00:05:22;;;;;;;7.83;6.17;;;;;;;4.79;91.07;98469.47;3261842;85;21039;-80
2022/01/30 00:10:14;;;;;;;6.67;5.12;;;;;;;4.84;91.01;98474.22;3256111;85;21499;-80
2022/01/30 00:15:06;;;;;;;6.55;5.37;;;;;;;4.93;91.04;98443.34;3265957;85;21538;-80
2022/01/30 00:20:04;;;;;;;5.55;4.40;;;;;;;4.95;90.82;98451.08;3271227;85;21014;-80
2022/01/30 00:24:57;;;;;;;4.60;3.98;;;;;;;5.00;90.92;98436.95;3286565;85;20985;-80
2022/01/30 00:29:47;;;;;;;3.83;3.37;;;;;;;5.04;90.90;98447.68;3266648;85;21560;-81
2022/01/30 00:34:38;;;;;;;5.08;3.20;;;;;;;5.08;90.79;98447.70;3280974;85;21463;-81
2022/01/30 00:44:36;;;;;;;3.12;2.20;;;;;;;5.13;89.84;98468.30;3207140;83;21318;-81
2022/01/30 00:49:27;;;;;;;3.60;1.60;;;;;;;5.07;89.45;98510.36;3199262;86;21155;-81
2022/01/30 00:54:18;;;;;;;2.65;1.12;;;;;;;5.02;88.91;98475.15;3203105;86;21488;-81
2022/01/30 00:59:09;;;;;;;9.05;1.82;;;;;;;4.99;88.07;98508.61;3228283;86;21494;-81
2022/01/30 01:04:00;;;;;;;3.42;1.47;;;;;;;4.95;87.48;98496.15;3230902;86;20998;-81
2022/01/30 01:08:57;;;;;;;4.08;1.30;;;;;;;4.88;87.04;98484.10;3233910;86;21079;-81
2022/01/30 01:23:51;;;;;;;5.40;1.42;;;;;;;4.78;85.42;98493.52;3257610;86;21172;-81
2022/01/30 01:28:44;;;;;;;6.58;1.92;;;;;;;4.70;84.23;98493.89;3234414;86;21029;-82
2022/01/30 01:38:45;;;;;;;4.87;2.20;;;;;;;4.46;83.64;98485.20;3235325;85;20977;-82
2022/01/30 01:43:37;;;;;;;4.35;1.52;;;;;;;4.33;83.89;98491.98;3252944;85;21278;-82
2022/01/30 01:48:34;;;;;;;8.60;1.92;;;;;;;4.26;83.33;98492.80;3231842;85;21129;-81
2022/01/30 01:53:26;;;;;;;10.45;2.83;;;;;;;4.20;83.66;98494.02;3279381;85;20985;-82
2022/01/30 01:58:17;;;;;;;6.20;1.45;;;;;;;4.14;83.11;98485.84;3244341;85;21043;-82
2022/01/30 02:03:29;;;;;;;9.73;1.87;;;;;;;4.18;82.74;98485.00;3144245;88;21039;-82
2022/01/30 02:08:38;;;;;;;6.62;2.25;;;;;;;4.22;82.48;98503.05;3177539;88;21015;-82
2022/01/30 02:28:53;;;;;;;7.92;1.92;;;;;;;4.25;80.89;98469.63;3164838;88;20992;-82
2022/01/30 02:33:43;;;;;;;5.00;1.67;;;;;;;4.23;80.67;98458.48;3191105;85;20991;-82
2022/01/30 02:38:35;;;;;;;10.53;2.95;;;;;;;4.20;81.13;98455.04;3266012;85;21923;-82
2022/01/30 02:43:32;;;;;;;7.92;1.85;;;;;;;4.23;80.90;98445.62;3239472;86;21105;-82
2022/01/30 02:48:31;;;;;;;8.28;3.60;;;;;;;4.18;81.49;98451.56;3231017;86;21000;-82
2022/01/30 02:53:13;;;;;;;7.37;1.82;;;;;;;4.12;81.56;98443.83;3232939;86;21494;-82
2022/01/30 02:58:04;;;;;;;5.17;1.52;;;;;;;4.09;81.30;98415.52;3219152;86;21034;-81
2022/01/30 03:02:56;;;;;;;8.88;1.98;;;;;;;4.10;81.23;98426.68;3234086;86;21244;-82
2022/01/30 03:07:48;;;;;;;16.17;3.15;;;;;;;4.12;81.17;98415.54;3259600;86;20993;-81
2022/01/30 03:12:39;;;;;;;6.90;2.37;;;;;;;4.13;80.67;98415.98;3230676;85;20990;-82
2022/01/30 03:17:30;;;;;;;9.83;2.22;;;;;;;4.09;80.74;98411.66;3247237;85;20969;-83
2022/01/30 03:22:22;;;;;;;13.43;2.67;;;;;;;4.05;79.88;98420.21;3269018;86;21033;-82
2022/01/30 03:27:14;;;;;;;9.53;1.90;;;;;;;4.05;80.64;98429.21;3202768;86;21123;-82
2022/01/30 03:32:09;;;;;;;4.33;1.50;;;;;;;3.98;80.80;98451.88;3280724;85;20977;-82
2022/01/30 03:37:01;;;;;;;3.58;1.57;;;;;;;3.81;81.55;98480.89;3279644;85;20982;-80
2022/01/30 03:41:54;;;;;;;5.28;3.10;;;;;;;3.53;82.08;98448.95;3212291;85;21229;-80
2022/01/30 03:46:46;;;;;;;2.75;1.20;;;;;;;3.20;82.17;98425.97;3198478;86;21017;-80
2022/01/30 03:51:37;;;;;;;4.50;1.25;;;;;;;3.01;82.72;98418.92;3214210;86;21134;-80
2022/01/30 03:56:30;;;;;;;9.10;1.52;;;;;;;2.85;82.91;98402.50;3206649;86;20959;-81
2022/01/30 04:01:21;;;;;;;5.25;1.98;;;;;;;2.71;83.00;98409.19;3199817;86;20956;-81
2022/01/30 04:06:12;;;;;;;6.47;1.77;;;;;;;2.63;83.15;98388.14;3216392;86;20919;-81
2022/01/30 04:11:05;;;;;;;5.55;1.07;;;;;;;2.65;83.39;98389.02;3240346;86;21023;-81
2022/01/30 04:16:01;;;;;;;7.28;1.47;;;;;;;2.74;83.40;98388.70;3227074;86;21559;-82
2022/01/30 04:21:03;;;;;;;4.60;2.10;;;;;;;2.80;83.41;98381.05;3234703;86;20978;-81
2022/01/30 04:26:02;;;;;;;2.87;1.80;;;;;;;2.86;83.43;98372.12;3229677;86;20980;-82
2022/01/30 04:31:13;;;;;;;7.50;1.75;;;;;;;2.87;83.45;98362.30;3215293;86;21003;-82
2022/01/30 04:36:14;;;;;;;10.05;2.12;;;;;;;2.92;83.52;98347.81;3205599;86;21045;-82
2022/01/30 04:52:25;;;;;;;5.40;1.52;;;;;;;3.28;82.74;98325.88;3215996;86;20995;-82
2022/01/30 04:57:52;;;;;;;5.55;2.22;;;;;;;3.40;82.18;98315.69;3205881;86;21031;-81
2022/01/30 05:02:12;;;;;;;10.30;1.57;;;;;;;3.42;81.86;98282.31;3232961;86;21442;-81
2022/01/30 05:12:12;;;;;;;7.12;1.42;;;;;;;3.50;80.82;98260.08;3210254;86;20965;-82
2022/01/30 05:17:07;;;;;;;7.33;1.90;;;;;;;3.54;79.63;98258.38;3194231;86;20975;-81
2022/01/30 05:22:00;;;;;;;9.08;2.70;;;;;;;3.60;80.19;98263.58;3200347;86;21027;-82
2022/01/30 05:26:57;;;;;;;7.87;1.35;;;;;;;3.66;80.00;98240.91;3218676;86;27293;-81
2022/01/30 05:32:00;;;;;;;4.12;1.50;;;;;;;3.70;79.50;98224.23;3240640;86;21053;-82
2022/01/30 05:36:52;;;;;;;7.97;3.15;;;;;;;3.75;77.21;98201.95;3176703;86;20999;-82
2022/01/30 05:42:03;;;;;;;7.78;2.65;;;;;;;3.82;77.12;98228.55;3248225;86;21222;-81
2022/01/30 05:46:56;;;;;;;7.67;2.45;;;;;;;3.79;77.25;98206.28;3267855;85;22246;-81
2022/01/30 05:51:49;;;;;;;8.65;1.77;;;;;;;3.70;78.12;98241.34;3251286;85;20995;-81
2022/01/30 05:56:42;;;;;;;9.23;3.20;;;;;;;3.62;78.26;98234.89;3230696;85;21009;-81
2022/01/30 06:01:38;;;;;;;4.40;1.60;;;;;;;3.59;78.23;98228.01;3275419;85;21011;-82
2022/01/30 06:06:34;;;;;;;10.68;3.08;;;;;;;3.60;77.83;98235.31;3268277;85;21003;-82
2022/01/30 06:11:25;;;;;;;9.50;2.22;;;;;;;3.63;77.26;98232.73;3273382;85;21030;-82
2022/01/30 06:16:17;;;;;;;4.78;1.47;;;;;;;3.60;76.65;98241.30;3247811;85;21005;-82
2022/01/30 06:21:09;;;;;;;7.42;2.00;;;;;;;3.60;76.78;98255.87;3280805;85;21000;-82
2022/01/30 06:26:12;;;;;;;6.17;1.65;;;;;;;3.60;77.25;98265.72;3276224;85;20989;-82
2022/01/30 06:31:17;;;;;;;8.20;2.17;;;;;;;3.62;77.08;98265.29;3049682;90;21006;-82
2022/01/30 06:36:26;;;;;;;8.55;3.00;;;;;;;3.65;77.09;98249.05;3082646;90;21157;-82
2022/01/30 06:41:20;;;;;;;7.12;2.37;;;;;;;3.67;76.69;98257.62;3112174;90;21052;-82
2022/01/30 06:46:30;;;;;;;5.87;1.90;;;;;;;3.69;76.42;98272.62;3098962;90;21681;-82
2022/01/30 06:51:23;;;;;;;10.15;1.92;;;;;;;3.68;76.52;98252.89;3053282;91;20996;-82
2022/01/30 06:56:32;;;;;;;4.72;2.15;;;;;;;3.72;76.40;98263.64;3059264;91;21080;-82
2022/01/30 07:01:42;;;;;;;5.50;1.52;;;;;;;3.75;76.71;98266.21;3069152;91;21015;-83
2022/01/30 07:06:35;;;;;;;4.35;1.62;;;;;;;3.70;75.74;98266.64;3140846;87;21524;-82
2022/01/30 07:11:26;;;;;;;5.07;2.40;;;;;;;3.67;76.52;98243.48;3156944;87;21096;-82
2022/01/30 08:35:04;;;;;;;2.55;1.50;;;;;;;2.50;81.41;98251.59;3604383;77;22831;-79
2022/01/30 08:39:55;;;;;;;3.65;1.42;;;;;;;2.22;81.59;98237.23;3495677;80;21547;-80
2022/01/30 08:44:47;;;;;;;2.90;1.32;;;;;;;2.17;81.97;98240.16;3510923;79;21597;-80
2022/01/30 08:49:38;;;;;;;2.02;1.32;;;;;;;2.32;82.42;98224.50;3504440;79;20931;-80
2022/01/30 08:54:29;;;;;;;1.32;1.00;;;;;;;2.52;82.23;98242.20;3440448;80;20978;-80
2022/01/30 08:59:20;;;;;;;2.47;1.15;;;;;;;2.58;82.46;98246.13;3443054;80;21676;-81
2022/01/30 09:04:12;;;;;;;1.50;0.82;;;;;;;2.53;82.67;98246.51;3504372;79;20978;-80
2022/01/30 09:09:03;;;;;;;1.72;1.05;;;;;;;2.61;82.36;98241.03;3475918;80;21046;-81
2022/01/30 09:13:54;;;;;;;2.30;1.10;;;;;;;2.67;82.07;98252.62;3449887;80;21451;-81
2022/01/30 09:18:45;;;;;;;1.87;1.05;;;;;;;3.30;81.58;98266.81;3428397;80;20982;-80
2022/01/30 09:23:36;;;;;;;3.02;1.10;;;;;;;4.21;79.95;98257.84;3523796;80;21023;-81
2022/01/30 09:28:27;;;;;;;1.40;1.00;;;;;;;4.17;79.96;98246.68;3471400;79;20962;-81
2022/01/30 09:33:18;;;;;;;2.05;1.20;;;;;;;3.88;80.16;98264.58;3473728;80;21006;-81
2022/01/30 09:38:09;;;;;;;2.33;1.25;;;;;;;3.92;80.06;98261.16;3448665;79;20935;-81
2022/01/30 09:43:01;;;;;;;4.92;2.12;;;;;;;3.79;80.36;98265.39;3399448;79;21114;-81
2022/01/30 09:47:52;;;;;;;4.03;2.10;;;;;;;3.70;80.58;98270.50;3461823;79;20959;-81
2022/01/30 09:52:45;;;;;;;3.00;1.65;;;;;;;3.60;80.57;98268.72;3465571;80;21536;-81
2022/01/30 09:57:36;;;;;;;3.83;1.85;;;;;;;3.50;81.00;98265.22;3417373;82;20998;-81
2022/01/30 10:02:28;;;;;;;3.30;1.80;;;;;;;3.40;81.18;98260.46;3432512;80;21439;-82
2022/01/30 10:07:21;;;;;;;3.27;2.00;;;;;;;3.32;81.34;98247.98;3452468;80;20959;-81
2022/01/30 10:12:16;;;;;;;7.40;2.67;;;;;;;3.21;81.81;98250.48;3403201;80;21070;-81
2022/01/30 10:17:08;;;;;;;5.62;2.50;;;;;;;3.16;82.09;98254.72;3410976;80;21649;-82
2022/01/30 10:22:09;;;;;;;4.78;2.83;;;;;;;3.14;82.38;98268.41;3434557;81;20956;-82
2022/01/30 10:27:03;;;;;;;4.17;2.60;;;;;;;3.15;82.50;98260.72;3433108;80;21006;-82
2022/01/30 10:32:09;;;;;;;5.62;2.05;;;;;;;3.10;82.64;98256.41;3448858;80;20940;-82
2022/01/30 10:37:23;;;;;;;7.15;3.02;;;;;;;3.10;82.79;98248.70;3427782;80;20967;-82
2022/01/30 10:42:42;;;;;;;10.53;3.72;;;;;;;3.07;82.96;98239.69;3377622;80;21023;-81
2022/01/30 10:47:37;;;;;;;9.10;3.52;;;;;;;3.05;83.24;98221.27;3458558;80;21323;-82
2022/01/30 10:52:31;;;;;;;9.40;3.08;;;;;;;3.05;83.56;98212.28;3412175;80;20987;-81
2022/01/30 10:57:22;;;;;;;8.58;2.45;;;;;;;3.07;83.74;98217.86;3408769;80;21273;-81
2022/01/30 11:02:17;;;;;;;3.30;2.08;;;;;;;3.04;83.83;98216.12;3454461;81;21011;-81
2022/01/30 11:07:09;;;;;;;4.55;2.33;;;;;;;3.00;84.06;98204.97;3413502;80;22140;-82
2022/01/30 11:12:07;;;;;;;7.12;2.90;;;;;;;3.00;84.07;98212.67;3435306;80;22265;-82
2022/01/30 11:21:59;;;;;;;6.83;2.50;;;;;;;2.93;84.16;98199.36;3459720;80;21501;-82
2022/01/30 11:26:51;;;;;;;7.12;2.65;;;;;;;2.89;84.53;98188.64;3443662;82;21047;-80
2022/01/30 11:31:44;;;;;;;10.15;3.12;;;;;;;2.87;84.71;98192.91;3442574;81;21475;-81
2022/01/30 11:36:40;;;;;;;5.75;2.55;;;;;;;2.88;84.97;98173.23;3497290;79;20969;-81
2022/01/30 11:41:34;;;;;;;7.58;2.27;;;;;;;2.86;85.17;98204.02;3512888;79;20946;-82
2022/01/30 11:46:25;;;;;;;7.28;3.05;;;;;;;2.84;85.22;98232.66;3437679;80;20974;-81
2022/01/30 11:51:16;;;;;;;7.15;2.40;;;;;;;2.87;85.42;98241.67;3443817;80;21060;-82
2022/01/30 11:56:07;;;;;;;4.70;2.77;;;;;;;2.98;85.21;98258.01;3505797;79;21005;-82
2022/01/30 12:01:04;;;;;;;5.67;2.15;;;;;;;3.08;85.17;98261.92;3475149;79;20992;-82
2022/01/30 12:05:58;;;;;;;5.85;2.37;;;;;;;3.24;85.01;98269.77;3455638;79;20961;-82
2022/01/30 12:10:49;;;;;;;7.90;2.62;;;;;;;3.49;84.82;98267.77;3432419;80;21006;-82
2022/01/30 12:15:43;;;;;;;6.08;2.40;;;;;;;3.60;84.44;98252.86;3485543;79;26534;-82
2022/01/30 12:21:08;;;;;;;7.20;3.72;;;;;;;3.51;84.59;98282.80;3418771;81;21018;-82
2022/01/30 12:26:08;;;;;;;9.23;4.58;;;;;;;3.38;84.73;98281.44;3443571;79;20989;-81
2022/01/30 12:30:59;;;;;;;5.45;2.45;;;;;;;3.27;84.90;98285.61;3469869;80;20959;-81
2022/01/30 12:35:51;;;;;;;4.35;2.10;;;;;;;3.25;85.11;98309.14;3350434;81;21125;-82
2022/01/30 12:40:46;;;;;;;2.58;1.67;;;;;;;3.23;85.15;98311.70;3344144;81;21009;-81
2022/01/30 12:45:37;;;;;;;2.08;1.50;;;;;;;3.26;84.90;98330.14;3357951;81;21272;-81
2022/01/30 12:50:32;;;;;;;2.62;1.60;;;;;;;3.26;84.93;98327.57;3356917;82;21010;-81
2022/01/30 12:55:22;;;;;;;2.35;1.42;;;;;;;3.25;84.91;98348.95;3343516;81;21002;-82
2022/01/30 13:00:17;;;;;;;3.05;1.40;;;;;;;3.26;85.01;98364.81;3389340;81;21116;-83
2022/01/30 13:05:11;;;;;;;2.30;1.70;;;;;;;3.24;84.89;98385.34;3388150;81;20993;-89
2022/01/30 13:10:13;;;;;;;2.65;1.27;;;;;;;3.14;84.89;98383.95;3390059;81;21157;-84
2022/01/30 13:15:10;;;;;;;2.85;1.30;;;;;;;2.95;85.04;98410.74;3428403;81;20970;-84
2022/01/30 13:20:04;;;;;;;1.67;1.15;;;;;;;2.79;84.84;98422.94;3388818;81;21534;-83
2022/01/30 13:25:06;;;;;;;3.00;1.80;;;;;;;2.59;84.75;98446.66;3421817;81;21029;-82
2022/01/30 13:29:58;;;;;;;2.47;1.70;;;;;;;2.50;84.97;98461.94;3471127;80;21818;-82
2022/01/30 13:34:49;;;;;;;1.92;1.67;;;;;;;2.53;85.38;98479.94;3462414;79;21867;-81
2022/01/30 13:40:03;;;;;;;1.85;1.67;;;;;;;2.52;85.64;98482.05;3507891;79;21511;-83
2022/01/30 13:44:51;;;;;;;2.75;1.72;;;;;;;2.58;85.94;98479.59;3436450;80;22312;-86
2022/01/30 13:49:43;;;;;;;2.80;1.70;;;;;;;2.62;86.16;98487.75;3450730;80;20904;-84
2022/01/30 13:54:39;;;;;;;;;;;;;;;2.69;86.34;98486.57;3504466;79;20998;-80
2022/01/30 13:59:30;;;;;;;2.98;1.20;;;;;;;2.77;86.46;98486.22;3516637;79;21238;-81
2022/01/30 14:04:22;;;;;;;3.00;1.40;;;;;;;2.78;86.42;98513.63;3500703;80;22208;-81
2022/01/30 14:09:25;;;;;;;1.20;0.93;;;;;;;2.83;86.49;98500.44;3418656;80;21017;-83
2022/01/30 14:14:15;;;;;;;1.30;1.00;;;;;;;2.91;86.56;98520.63;3461854;80;23776;-81
2022/01/30 14:19:22;;;;;;;1.45;1.05;;;;;;;2.91;86.38;98532.60;3457063;79;21482;-81
2022/01/30 14:24:20;;;;;;;2.00;1.50;;;;;;;2.90;86.39;98559.98;3477679;79;24228;-84
2022/01/30 14:29:16;;;;;;;2.12;1.35;;;;;;;2.89;86.50;98533.86;3504514;79;21041;-83
2022/01/30 14:34:07;;;;;;;1.22;1.12;;;;;;;2.87;86.49;98559.94;3503539;79;20972;-84
2022/01/30 14:38:59;;;;;;;1.55;0.98;;;;;;;2.83;86.32;98553.91;3521730;78;25013;-83
2022/01/30 14:43:50;;;;;;;1.42;0.88;;;;;;;2.82;86.44;98579.55;3459128;78;20988;-83
2022/01/30 18:37:25;;;;;;;3.67;1.72;;;;;;;2.43;82.40;99019.31;3573413;79;22678;-69
2022/01/30 18:42:10;;;;;;;2.27;1.22;;;;;;;2.25;82.70;99054.38;3449417;80;21066;-68
2022/01/30 18:47:03;;;;;;;4.20;2.08;;;;;;;2.17;82.83;99063.19;3484077;79;21050;-69
2022/01/30 18:51:54;;;;;;;6.47;1.30;;;;;;;2.11;83.10;99057.92;3469809;79;20974;-68
2022/01/30 18:56:46;;;;;;;4.75;2.42;;;;;;;2.01;83.16;99041.43;3472803;79;21252;-69
2022/01/30 19:01:38;;;;;;;4.25;2.40;;;;;;;1.96;83.30;99053.27;3403901;79;20960;-69
2022/01/30 19:06:35;;;;;;;3.77;1.42;;;;;;;1.92;83.49;99041.64;3442990;79;21139;-68
2022/01/30 19:11:22;;;;;;;1.60;1.20;;;;;;;1.88;83.60;99040.27;3500016;79;20974;-68
2022/01/30 19:16:13;;;;;;;3.55;1.52;;;;;;;1.80;83.62;99043.04;3412121;79;20943;-69
2022/01/30 19:21:15;;;;;;;3.45;1.50;;;;;;;1.79;83.76;99042.61;3469371;80;21003;-69
2022/01/30 19:26:04;;;;;;;2.80;1.75;;;;;;;1.81;83.69;99044.79;3460281;79;21693;-69
2022/01/30 19:30:56;;;;;;;2.30;1.47;;;;;;;1.82;83.50;99049.06;3503777;79;21115;-69
2022/01/30 19:35:47;;;;;;;3.22;2.05;;;;;;;1.85;83.38;99045.31;3497923;80;20937;-69
2022/01/30 19:40:39;;;;;;;2.37;1.32;;;;;;;1.90;83.10;99051.42;3427851;79;20912;-69
2022/01/30 19:45:36;;;;;;;2.55;1.10;;;;;;;1.98;82.96;99050.74;3474265;79;20989;-69
2022/01/30 19:50:25;;;;;;;3.90;1.82;;;;;;;2.03;82.50;99046.59;3476064;79;20967;-69
2022/01/30 19:55:22;;;;;;;4.03;1.98;;;;;;;2.09;82.16;99068.13;3482868;79;22072;-69
2022/01/30 20:00:18;;;;;;;8.00;5.75;;;;;;;2.16;82.09;99083.66;3449854;79;21015;-69
2022/01/30 20:05:10;;;;;;;5.15;2.95;;;;;;;2.21;82.00;99100.88;3475212;80;20947;-70
2022/01/30 20:10:03;;;;;;;3.65;2.10;;;;;;;2.12;82.09;99113.48;3431069;79;20985;-69
2022/01/30 20:14:56;;;;;;;2.08;1.07;;;;;;;1.84;82.51;99134.96;3439169;80;21615;-70
2022/01/30 20:19:47;;;;;;;2.92;1.82;;;;;;;1.57;82.98;99134.67;3387290;80;21165;-69
2022/01/30 20:24:39;;;;;;;3.02;1.95;;;;;;;1.43;83.43;99140.71;3471767;80;21637;-70
2022/01/30 20:29:30;;;;;;;4.12;1.92;;;;;;;1.37;83.92;99144.36;3449727;80;21086;-69
2022/01/30 20:34:22;;;;;;;4.05;3.02;;;;;;;1.29;84.07;99154.39;3414026;80;21469;-69
2022/01/30 20:39:19;;;;;;;4.75;1.52;;;;;;;1.28;84.36;99168.43;3500484;80;20974;-69
2022/01/30 20:44:11;;;;;;;3.63;1.40;;;;;;;1.27;84.51;99157.72;3421624;80;22006;-69
2022/01/30 20:49:02;;;;;;;2.05;1.40;;;;;;;1.23;84.45;99140.11;3491422;80;20931;-68
2022/01/30 20:53:53;;;;;;;3.93;1.50;;;;;;;1.26;84.64;99163.26;3444705;80;20992;-69
2022/01/30 20:58:47;;;;;;;3.02;1.20;;;;;;;1.24;84.42;99158.93;3456122;80;21627;-69
2022/01/30 21:03:39;;;;;;;1.50;0.98;;;;;;;1.24;84.24;99144.84;3464628;80;21044;-68
2022/01/30 21:08:33;;;;;;;2.37;1.55;;;;;;;1.25;84.25;99165.77;3433010;81;22057;-69
2022/01/30 21:13:27;;;;;;;1.90;1.50;;;;;;;1.25;84.08;99165.77;3407947;80;21493;-66
2022/01/30 21:18:18;;;;;;;2.08;1.15;;;;;;;1.27;83.95;99187.16;3440248;81;20992;-69
2022/01/30 21:23:14;;;;;;;1.90;1.30;;;;;;;1.28;83.78;99179.95;3426303;81;20932;-69
2022/01/30 21:28:05;;;;;;;3.75;1.00;;;;;;;1.31;83.53;99167.25;3406764;81;22219;-69
2022/01/30 21:32:59;;;;;;;2.02;1.17;;;;;;;1.36;83.31;99174.66;3443640;80;22161;-69
2022/01/30 21:37:51;;;;;;;2.08;1.35;;;;;;;1.40;83.16;99173.91;3409876;80;20967;-69
2022/01/30 21:42:44;;;;;;;2.60;1.02;;;;;;;1.42;82.55;99177.37;3410258;80;21583;-69
2022/01/30 21:47:42;;;;;;;3.95;1.30;;;;;;;1.47;82.85;99164.72;3481722;80;20959;-69
2022/01/30 21:52:35;;;;;;;2.77;0.98;;;;;;;1.48;82.87;99177.96;3443212;80;20989;-69
2022/01/30 21:57:28;;;;;;;2.00;1.22;;;;;;;1.48;82.99;99181.38;3449816;80;21651;-69
2022/01/30 22:02:19;;;;;;;4.53;1.95;;;;;;;1.45;83.05;99173.63;3463156;80;20959;-69
2022/01/30 22:07:13;;;;;;;3.45;1.77;;;;;;;1.45;83.07;99193.23;3417277;81;20954;-69
2022/01/30 22:12:26;;;;;;;4.35;1.85;;;;;;;1.46;83.23;99198.41;3407278;81;21730;-69
2022/01/30 22:16:59;;;;;;;5.00;2.35;;;;;;;1.49;83.23;99229.24;3411074;81;21038;-69
2022/01/30 22:21:50;;;;;;;4.55;1.30;;;;;;;1.44;83.35;99228.23;3466904;80;21457;-69
2022/01/30 22:26:44;;;;;;;2.92;1.60;;;;;;;1.37;83.65;99255.77;3446088;80;20969;-69
2022/01/30 22:31:36;;;;;;;5.12;1.50;;;;;;;1.25;84.01;99231.95;3422814;80;20954;-69
2022/01/30 22:36:28;;;;;;;4.28;1.05;;;;;;;1.17;84.38;99260.28;3349709;81;20962;-69
2022/01/30 22:41:18;;;;;;;2.17;1.00;;;;;;;1.06;84.42;99238.19;3379959;81;21007;-68
2022/01/30 22:46:10;;;;;;;5.03;1.55;;;;;;;1.01;84.70;99232.05;3421194;81;22019;-69
2022/01/30 22:51:01;;;;;;;1.87;1.25;;;;;;;0.98;84.67;99245.16;3438617;81;21026;-69
2022/01/30 22:55:52;;;;;;;2.90;1.90;;;;;;;0.96;84.91;99241.27;3427769;81;21487;-69
2022/01/30 23:00:45;;;;;;;2.15;1.37;;;;;;;0.96;84.84;99257.91;3379565;82;21511;-69
2022/01/30 23:05:37;;;;;;;3.05;2.27;;;;;;;0.97;84.76;99254.54;3437761;82;20971;-69
2022/01/30 23:10:29;;;;;;;3.37;1.90;;;;;;;1.00;84.67;99252.05;3438002;81;21081;-69
2022/01/30 23:15:21;;;;;;;4.10;1.47;;;;;;;1.03;84.36;99263.67;3379749;82;21002;-69
2022/01/30 23:20:14;;;;;;;1.85;1.30;;;;;;;1.06;84.12;99259.94;3414117;81;21565;-69
2022/01/30 23:25:12;;;;;;;3.85;1.40;;;;;;;1.11;83.75;99260.96;3405015;81;21023;-69
2022/01/30 23:30:06;;;;;;;1.80;1.13;;;;;;;1.18;83.25;99261.14;3413814;81;21911;-69
2022/01/30 23:34:58;;;;;;;4.20;1.40;;;;;;;1.22;83.06;99273.23;3444311;80;22095;-69
2022/01/30 23:39:57;;;;;;;2.52;1.10;;;;;;;1.25;82.45;99275.88;3473003;80;20997;-69
2022/01/30 23:44:44;;;;;;;1.40;1.10;;;;;;;1.28;82.28;99285.80;3429685;80;21491;-69
2022/01/30 23:49:35;;;;;;;6.08;1.45;;;;;;;1.36;82.01;99277.48;3412271;80;21440;-69
2022/01/30 23:54:26;;;;;;;2.22;2.00;;;;;;;1.42;81.62;99272.56;3464677;80;20970;-69
2022/01/30 23:59:18;;;;;;;2.87;1.30;;;;;;;1.44;81.36;99261.53;3415231;82;20979;-70
